Time;durP1;ratioP1;P1;durP2;ratioP2;P2;SDS_P1;SDS_P2;PMS_P1;PMS_P2;Temp;Humidity;BMP_temperature;BMP_pressure;BME280_temperature;BME280_humidity;BME280_pressure;Samples;Min_cycle;Max_cycle;Signal;HPM_P1;HPM_P2
2023/07/12 00:01:31;;;;;;;1.85;1.30;;;23.50;97.20;;;;;;5026435;28;20291;-30
2023/07/12 00:04:01;;;;;;;2.65;1.30;;;23.50;97.20;;;;;;5025282;28;20626;-30
2023/07/12 00:06:38;;;;;;;1.30;0.85;;;23.40;97.20;;;;;;5027614;28;20205;-30
2023/07/12 00:09:11;;;;;;;3.00;1.30;;;23.40;97.30;;;;;;5027428;28;20724;-30
2023/07/12 00:11:41;;;;;;;4.05;1.20;;;23.30;97.10;;;;;;5026319;28;20280;-30
2023/07/12 00:14:08;;;;;;;1.35;1.25;;;23.30;97.30;;;;;;5026968;28;20221;-30
2023/07/12 00:16:39;;;;;;;1.70;1.05;;;23.20;97.10;;;;;;5027765;28;20548;-30
2023/07/12 00:19:15;;;;;;;2.88;1.10;;;23.20;97.00;;;;;;5026262;28;20207;-30
2023/07/12 00:21:47;;;;;;;1.88;1.15;;;23.20;97.00;;;;;;5027300;28;20247;-30
2023/07/12 00:24:16;;;;;;;1.92;1.17;;;23.10;96.80;;;;;;5027235;28;20197;-30
2023/07/12 00:26:43;;;;;;;1.63;1.10;;;23.10;96.70;;;;;;5025297;28;20710;-30
2023/07/12 00:29:12;;;;;;;2.15;1.20;;;23.00;96.80;;;;;;5044435;28;20273;-30
2023/07/12 00:31:40;;;;;;;2.22;1.17;;;23.00;96.70;;;;;;5045539;28;20205;-30
2023/07/12 00:34:07;;;;;;;3.28;1.05;;;23.00;96.80;;;;;;5046024;28;20246;-30
2023/07/12 00:36:37;;;;;;;1.83;1.27;;;23.00;96.80;;;;;;5045534;28;20601;-30
2023/07/12 00:39:05;;;;;;;1.45;1.08;;;23.00;96.80;;;;;;5046663;28;20640;-30
2023/07/12 00:42:03;;;;;;;2.88;1.45;;;23.00;96.90;;;;;;5046856;28;20208;-30
2023/07/12 00:44:34;;;;;;;2.95;1.20;;;23.00;97.30;;;;;;5046487;28;20212;-30
2023/07/12 00:47:01;;;;;;;1.48;1.10;;;23.00;96.80;;;;;;5045224;28;20209;-31
2023/07/12 00:49:28;;;;;;;2.47;1.42;;;22.90;97.10;;;;;;5044368;28;20303;-30
2023/07/12 00:52:14;;;;;;;3.67;1.48;;;22.90;96.90;;;;;;5047222;28;20204;-31
2023/07/12 00:54:59;;;;;;;5.20;1.73;;;22.80;97.00;;;;;;5045232;28;20212;-30
2023/07/12 00:57:29;;;;;;;2.67;1.38;;;22.80;97.20;;;;;;5046788;28;20189;-30
2023/07/12 01:00:10;;;;;;;2.40;1.60;;;22.80;97.10;;;;;;5042563;28;20211;-30
2023/07/12 01:02:45;;;;;;;1.73;1.40;;;22.70;97.70;;;;;;5046486;28;20223;-29
2023/07/12 01:05:16;;;;;;;2.60;1.63;;;22.70;97.30;;;;;;5031780;28;20215;-29
2023/07/12 01:07:43;;;;;;;3.67;1.45;;;22.60;97.30;;;;;;5046249;28;20521;-29
2023/07/12 01:10:13;;;;;;;1.67;1.10;;;22.60;97.40;;;;;;5046625;28;20285;-29
2023/07/12 01:12:40;;;;;;;2.50;1.38;;;22.50;97.30;;;;;;5044667;28;20227;-29
2023/07/12 01:15:10;;;;;;;2.42;1.20;;;22.40;97.30;;;;;;5045878;28;20208;-29
2023/07/12 01:17:39;;;;;;;1.85;1.17;;;22.40;97.40;;;;;;5033663;28;20213;-28
2023/07/12 01:20:10;;;;;;;1.88;1.25;;;22.30;97.40;;;;;;5042440;28;20756;-29
2023/07/12 01:22:37;;;;;;;3.05;1.40;;;22.20;97.30;;;;;;5033361;28;20745;-29
2023/07/12 01:25:07;;;;;;;1.95;1.30;;;22.10;97.50;;;;;;5043978;28;20250;-29
2023/07/12 01:27:34;;;;;;;1.92;1.40;;;22.10;97.40;;;;;;5044734;28;20236;-28
2023/07/12 01:30:07;;;;;;;2.03;1.27;;;22.00;97.40;;;;;;5045548;28;20211;-28
2023/07/12 01:32:41;;;;;;;1.45;1.33;;;22.00;97.40;;;;;;5042495;28;20239;-29
2023/07/12 01:35:08;;;;;;;2.40;1.38;;;21.90;97.40;;;;;;5044685;28;20243;-29
2023/07/12 01:37:35;;;;;;;2.42;1.30;;;21.90;97.40;;;;;;5047487;28;20243;-29
2023/07/12 01:40:03;;;;;;;3.60;1.02;;;21.80;97.30;;;;;;5048122;28;20690;-28
2023/07/12 01:42:30;;;;;;;2.92;1.00;;;21.80;97.40;;;;;;5047965;28;20269;-29
2023/07/12 01:45:00;;;;;;;2.05;0.93;;;21.80;97.40;;;;;;5048377;28;20639;-29
2023/07/12 01:47:30;;;;;;;2.25;1.08;;;21.80;97.50;;;;;;5049934;28;20197;-29
2023/07/12 01:49:59;;;;;;;2.95;0.95;;;21.80;97.60;;;;;;5047871;28;20196;-30
2023/07/12 01:52:29;;;;;;;1.60;1.20;;;21.80;97.50;;;;;;5047223;28;20761;-29
2023/07/12 01:54:57;;;;;;;2.20;1.30;;;22.10;98.10;;;;;;5050126;28;20204;-29
2023/07/12 01:57:31;;;;;;;1.92;1.02;;;22.10;97.90;;;;;;5050895;28;20207;-29
2023/07/12 02:00:00;;;;;;;1.17;1.00;;;22.00;97.90;;;;;;5049811;28;20196;-29
2023/07/12 02:02:31;;;;;;;2.67;1.33;;;22.00;97.80;;;;;;5048326;28;20244;-29
2023/07/12 02:05:03;;;;;;;3.30;1.30;;;21.90;97.90;;;;;;5048693;28;20293;-29
2023/07/12 02:07:33;;;;;;;2.33;1.10;;;21.80;98.00;;;;;;5050053;28;20200;-29
2023/07/12 02:10:16;;;;;;;1.27;0.95;;;21.80;98.00;;;;;;5047801;28;20611;-29
2023/07/12 02:12:45;;;;;;;3.50;1.38;;;21.70;98.20;;;;;;5048362;28;20223;-29
2023/07/12 02:15:14;;;;;;;2.55;1.20;;;21.70;97.90;;;;;;5046316;28;20961;-29
2023/07/12 02:17:43;;;;;;;4.45;1.30;;;21.60;97.80;;;;;;5031213;28;20228;-29
2023/07/12 02:20:11;;;;;;;2.08;1.17;;;21.60;98.00;;;;;;5028689;28;20637;-29
2023/07/12 02:22:43;;;;;;;3.10;1.08;;;21.60;98.00;;;;;;5027884;28;20239;-29
2023/07/12 02:25:14;;;;;;;1.65;1.20;;;21.50;98.00;;;;;;5029466;28;20263;-29
2023/07/12 02:27:44;;;;;;;2.38;0.93;;;21.50;98.10;;;;;;5028144;28;20796;-30
2023/07/12 02:30:16;;;;;;;3.50;1.75;;;21.50;98.10;;;;;;5029491;28;20596;-30
2023/07/12 02:32:45;;;;;;;3.40;1.40;;;21.50;98.30;;;;;;5027902;28;20756;-31
2023/07/12 02:35:18;;;;;;;3.42;1.10;;;21.40;98.10;;;;;;5028300;28;20225;-29
2023/07/12 02:37:48;;;;;;;2.22;1.35;;;21.40;98.20;;;;;;5027476;28;20245;-29
2023/07/12 02:40:18;;;;;;;2.90;1.58;;;21.40;98.20;;;;;;5029026;28;20308;-30
2023/07/12 02:42:47;;;;;;;3.72;1.25;;;21.30;98.20;;;;;;5027609;28;20197;-29
2023/07/12 02:45:17;;;;;;;1.80;1.10;;;21.30;98.50;;;;;;5027325;28;20212;-29
2023/07/12 02:47:45;;;;;;;1.60;1.20;;;21.20;98.30;;;;;;5027961;28;20762;-31
2023/07/12 02:50:13;;;;;;;2.05;1.30;;;21.20;98.30;;;;;;5027180;28;20201;-30
2023/07/12 02:52:40;;;;;;;2.63;1.30;;;21.20;98.30;;;;;;5028997;28;20197;-30
2023/07/12 02:55:09;;;;;;;3.25;1.42;;;21.20;98.40;;;;;;5028795;28;20209;-30
2023/07/12 02:57:37;;;;;;;2.35;1.30;;;21.10;98.40;;;;;;5028041;28;20220;-30
2023/07/12 03:00:05;;;;;;;1.52;1.13;;;21.10;98.30;;;;;;5028691;28;20193;-30
2023/07/12 03:02:32;;;;;;;2.85;1.40;;;21.10;98.20;;;;;;5027558;28;20204;-29
2023/07/12 03:05:02;;;;;;;2.33;1.00;;;21.10;98.30;;;;;;5028303;28;20209;-29
2023/07/12 03:07:32;;;;;;;2.47;1.25;;;21.00;98.40;;;;;;5029148;28;20278;-29
2023/07/12 03:10:02;;;;;;;3.05;1.20;;;21.00;98.50;;;;;;5030307;28;20201;-29
2023/07/12 03:12:34;;;;;;;2.13;1.23;;;21.00;98.50;;;;;;5036088;28;20265;-29
2023/07/12 03:15:04;;;;;;;1.90;1.50;;;21.00;98.60;;;;;;5028586;28;20227;-29
2023/07/12 03:17:32;;;;;;;3.42;1.27;;;20.90;98.80;;;;;;5028765;28;20205;-30
2023/07/12 03:20:01;;;;;;;2.17;1.20;;;20.90;98.90;;;;;;5027349;28;20200;-29
2023/07/12 03:22:31;;;;;;;2.15;1.20;;;20.90;99.10;;;;;;5026366;28;20213;-30
2023/07/12 03:24:58;;;;;;;4.05;1.27;;;20.90;98.50;;;;;;5027930;28;20215;-30
2023/07/12 03:27:26;;;;;;;2.83;1.58;;;20.90;98.80;;;;;;5027738;28;20205;-30
2023/07/12 03:29:53;;;;;;;4.50;1.80;;;20.80;99.00;;;;;;5035319;28;20298;-29
2023/07/12 03:32:24;;;;;;;4.00;1.80;;;20.80;98.90;;;;;;5026707;28;20205;-29
2023/07/12 03:34:52;;;;;;;5.28;1.88;;;20.80;98.80;;;;;;5025835;28;20279;-29
2023/07/12 03:37:21;;;;;;;4.55;1.80;;;20.70;98.90;;;;;;5028587;28;20241;-30
2023/07/12 03:39:50;;;;;;;3.50;1.70;;;20.70;98.80;;;;;;5026740;28;20205;-30
2023/07/12 03:42:20;;;;;;;5.32;2.08;;;20.70;98.70;;;;;;5025647;28;20456;-29
2023/07/12 03:44:47;;;;;;;2.78;1.70;;;20.90;99.10;;;;;;5027863;28;20766;-29
2023/07/12 03:47:14;;;;;;;2.75;1.80;;;20.90;98.90;;;;;;5026885;28;20217;-29
2023/07/12 03:49:44;;;;;;;3.85;1.83;;;20.90;98.90;;;;;;5026704;28;20205;-29
2023/07/12 03:52:13;;;;;;;1.98;1.63;;;20.80;98.90;;;;;;5027688;28;20205;-30
2023/07/12 03:54:43;;;;;;;5.68;2.15;;;20.80;98.70;;;;;;5027785;28;20700;-29
2023/07/12 03:57:12;;;;;;;3.40;1.95;;;20.70;98.80;;;;;;5028045;28;20192;-29
2023/07/12 03:59:42;;;;;;;5.63;2.10;;;20.70;98.90;;;;;;5026826;28;20197;-29
2023/07/12 04:02:14;;;;;;;3.42;1.63;;;20.60;98.90;;;;;;5026030;28;20644;-30
2023/07/12 04:04:41;;;;;;;6.60;2.25;;;20.60;98.80;;;;;;5026579;28;20796;-29
2023/07/12 04:07:09;;;;;;;3.85;1.95;;;20.60;98.70;;;;;;5039121;28;20693;-29
2023/07/12 04:09:38;;;;;;;3.28;2.03;;;20.50;99.00;;;;;;5047466;28;20205;-29
2023/07/12 04:12:07;;;;;;;2.70;1.67;;;20.50;98.70;;;;;;5047968;28;20200;-29
2023/07/12 04:14:34;;;;;;;5.07;2.17;;;20.50;98.70;;;;;;5047418;28;20224;-29
2023/07/12 04:17:04;;;;;;;5.22;2.20;;;20.50;98.90;;;;;;5047355;28;20220;-29
2023/07/12 04:19:34;;;;;;;3.80;2.10;;;20.50;98.80;;;;;;5046217;28;20204;-29
2023/07/12 04:22:04;;;;;;;3.47;1.95;;;20.50;98.90;;;;;;5047213;28;20212;-29
2023/07/12 04:24:31;;;;;;;2.97;1.90;;;20.50;98.90;;;;;;5045825;28;20207;-29
2023/07/12 04:27:01;;;;;;;4.85;2.10;;;20.40;98.90;;;;;;5045881;28;20200;-29
2023/07/12 04:29:31;;;;;;;4.38;2.22;;;20.40;98.90;;;;;;5045324;28;20220;-29
2023/07/12 04:31:59;;;;;;;4.13;2.33;;;20.40;98.90;;;;;;5047098;28;20207;-29
2023/07/12 04:34:26;;;;;;;5.68;2.40;;;20.40;99.00;;;;;;5044490;28;20286;-29
2023/07/12 04:37:07;;;;;;;8.98;2.63;;;20.40;99.10;;;;;;5046737;28;20357;-29
2023/07/12 04:39:36;;;;;;;5.30;2.08;;;20.40;99.00;;;;;;5047353;28;20220;-29
2023/07/12 04:42:06;;;;;;;5.47;2.25;;;20.40;99.10;;;;;;5046831;28;20338;-29
2023/07/12 04:44:34;;;;;;;8.25;2.40;;;20.40;99.00;;;;;;5046705;28;20558;-29
2023/07/12 04:47:01;;;;;;;3.72;2.03;;;20.40;99.00;;;;;;5046044;28;20285;-30
2023/07/12 04:49:28;;;;;;;5.80;2.20;;;20.30;99.00;;;;;;5045933;28;20223;-30
2023/07/12 04:51:57;;;;;;;5.28;2.30;;;20.30;99.00;;;;;;5045145;28;20792;-29
2023/07/12 04:54:24;;;;;;;4.88;1.90;;;20.30;99.10;;;;;;5046413;28;20243;-30
2023/07/12 04:56:51;;;;;;;8.68;2.22;;;20.30;99.10;;;;;;5044005;28;20661;-30
2023/07/12 04:59:21;;;;;;;4.32;2.10;;;20.30;99.00;;;;;;5030931;28;20216;-30
2023/07/12 05:01:48;;;;;;;4.05;1.98;;;20.30;99.00;;;;;;5032586;28;20700;-29
2023/07/12 05:04:16;;;;;;;5.63;1.95;;;20.30;99.10;;;;;;5024012;28;20205;-29
2023/07/12 05:06:44;;;;;;;6.00;2.40;;;20.30;99.00;;;;;;5025672;28;20229;-29
2023/07/12 05:09:13;;;;;;;5.95;2.60;;;20.30;99.20;;;;;;5031795;28;20204;-29
2023/07/12 05:11:43;;;;;;;5.40;2.28;;;20.30;99.40;;;;;;5030472;28;20258;-30
2023/07/12 05:14:11;;;;;;;4.03;2.30;;;20.30;99.30;;;;;;5028411;28;20266;-30
2023/07/12 05:16:38;;;;;;;6.93;2.78;;;20.30;99.30;;;;;;5027952;28;20247;-31
2023/07/12 05:19:05;;;;;;;5.32;2.15;;;20.40;99.40;;;;;;5035356;28;20842;-31
2023/07/12 05:21:33;;;;;;;5.90;2.33;;;20.40;99.30;;;;;;5036494;28;20558;-31
2023/07/12 05:24:05;;;;;;;4.05;2.40;;;20.40;99.70;;;;;;5031937;28;20254;-31
2023/07/12 05:26:33;;;;;;;4.97;2.33;;;20.40;99.40;;;;;;5042207;28;20291;-31
2023/07/12 05:29:03;;;;;;;8.52;2.13;;;20.40;99.50;;;;;;5042195;28;20689;-30
2023/07/12 05:31:33;;;;;;;7.80;2.33;;;20.50;99.70;;;;;;5027145;28;20217;-31
2023/07/12 05:34:00;;;;;;;4.40;1.80;;;20.40;99.70;;;;;;5034390;28;20216;-29
2023/07/12 05:36:30;;;;;;;6.05;2.13;;;20.50;99.70;;;;;;5044449;28;20197;-30
2023/07/12 05:38:58;;;;;;;4.68;2.20;;;20.50;99.70;;;;;;5030948;28;20240;-30
2023/07/12 05:41:28;;;;;;;5.57;2.20;;;20.50;99.90;;;;;;5034074;28;20215;-29
2023/07/12 05:43:55;;;;;;;5.35;2.05;;;20.60;99.70;;;;;;5045411;28;20289;-29
2023/07/12 05:46:25;;;;;;;4.28;2.30;;;20.60;99.60;;;;;;5044764;28;20311;-29
2023/07/12 05:48:55;;;;;;;4.13;1.92;;;20.60;99.60;;;;;;5036742;28;20594;-29
2023/07/12 05:51:25;;;;;;;4.65;2.47;;;20.60;99.60;;;;;;5025956;28;20267;-29
2023/07/12 05:53:52;;;;;;;5.03;1.75;;;20.60;99.60;;;;;;5020619;28;20329;-30
2023/07/12 05:56:19;;;;;;;6.40;2.33;;;20.60;99.60;;;;;;5034183;28;20248;-30
2023/07/12 05:58:46;;;;;;;5.15;2.30;;;20.60;99.60;;;;;;5030689;28;20346;-30
2023/07/12 06:01:13;;;;;;;7.20;2.28;;;20.70;99.60;;;;;;5023112;28;20216;-30
2023/07/12 06:03:43;;;;;;;6.10;2.53;;;20.70;99.60;;;;;;5037893;28;20200;-30
2023/07/12 06:06:10;;;;;;;6.85;2.47;;;20.60;99.50;;;;;;5040800;28;20273;-30
2023/07/12 06:08:37;;;;;;;7.25;2.45;;;20.70;99.70;;;;;;5045467;28;20204;-30
2023/07/12 06:11:12;;;;;;;6.50;2.30;;;20.70;99.70;;;;;;5045564;28;20239;-30
2023/07/12 06:13:39;;;;;;;6.53;2.80;;;20.70;99.80;;;;;;5043988;28;20219;-30
2023/07/12 06:16:09;;;;;;;5.65;2.35;;;20.70;99.90;;;;;;5038121;28;20354;-30
2023/07/12 06:18:36;;;;;;;4.03;2.53;;;20.70;99.70;;;;;;5029784;28;20196;-30
2023/07/12 06:21:09;;;;;;;6.68;2.58;;;20.70;99.80;;;;;;5034969;28;20205;-30
2023/07/12 06:23:42;;;;;;;5.63;2.58;;;20.70;99.90;;;;;;5029871;28;20327;-30
2023/07/12 06:26:12;;;;;;;5.95;2.05;;;20.70;99.90;;;;;;5034218;28;20208;-25
2023/07/12 06:28:42;;;;;;;5.97;2.70;;;20.80;99.90;;;;;;5030623;28;20674;-26
2023/07/12 06:31:09;;;;;;;5.95;2.22;;;20.80;99.90;;;;;;5029477;28;20221;-26
2023/07/12 06:33:41;;;;;;;8.75;2.40;;;20.80;99.90;;;;;;5029673;28;20315;-26
2023/07/12 06:36:08;;;;;;;5.65;2.30;;;20.80;99.90;;;;;;5030582;28;20215;-25
2023/07/12 06:38:36;;;;;;;5.32;2.50;;;20.80;99.80;;;;;;5032435;28;20233;-26
2023/07/12 06:41:05;;;;;;;8.52;2.40;;;20.90;99.80;;;;;;5036086;28;20717;-26
2023/07/12 06:43:33;;;;;;;7.68;2.35;;;20.90;99.80;;;;;;5031725;28;20201;-31
2023/07/12 06:46:00;;;;;;;7.32;2.95;;;20.90;99.90;;;;;;5031598;28;20223;-30
2023/07/12 06:48:28;;;;;;;9.73;2.05;;;20.90;99.90;;;;;;5035868;28;20212;-31
2023/07/12 06:50:58;;;;;;;5.43;2.20;;;20.90;99.90;;;;;;5028827;28;20287;-30
2023/07/12 06:53:26;;;;;;;5.53;1.90;;;20.90;99.90;;;;;;5032665;28;20696;-31
2023/07/12 06:55:58;;;;;;;4.82;2.50;;;20.90;99.90;;;;;;5035697;28;20232;-26
2023/07/12 06:58:27;;;;;;;9.68;2.55;;;21.00;99.90;;;;;;5036668;28;20196;-25
2023/07/12 07:01:00;;;;;;;7.57;2.40;;;21.00;99.90;;;;;;5040167;28;20224;-25
2023/07/12 07:03:27;;;;;;;7.40;2.33;;;21.10;99.90;;;;;;5028990;28;20292;-26
2023/07/12 07:05:54;;;;;;;5.30;2.30;;;21.10;99.90;;;;;;5032496;28;20222;-26
2023/07/12 07:08:25;;;;;;;5.85;2.13;;;21.20;99.90;;;;;;5048019;28;20197;-26
2023/07/12 07:10:53;;;;;;;7.53;2.15;;;21.10;99.90;;;;;;5046737;28;20208;-26
2023/07/12 07:13:26;;;;;;;4.28;2.20;;;21.20;99.90;;;;;;5048053;28;20223;-25
2023/07/12 07:15:56;;;;;;;4.45;1.95;;;21.20;99.90;;;;;;5047982;28;20239;-25
2023/07/12 07:18:23;;;;;;;6.68;2.22;;;21.20;99.90;;;;;;5037392;28;20208;-25
2023/07/12 07:20:52;;;;;;;5.78;2.22;;;21.30;99.90;;;;;;5027194;28;20275;-25
2023/07/12 07:23:23;;;;;;;5.82;1.98;;;21.30;99.90;;;;;;5027538;28;20208;-25
2023/07/12 07:25:52;;;;;;;5.53;1.90;;;21.30;99.90;;;;;;5026673;28;20704;-25
2023/07/12 07:28:23;;;;;;;4.82;2.03;;;21.30;99.90;;;;;;5030395;28;20238;-30
2023/07/12 07:30:55;;;;;;;6.18;2.03;;;21.30;99.90;;;;;;5045993;28;20212;-30
2023/07/12 07:33:29;;;;;;;6.75;1.95;;;21.30;99.90;;;;;;5044693;28;20278;-30
2023/07/12 07:35:59;;;;;;;6.47;2.50;;;21.30;99.90;;;;;;5045849;28;20239;-30
2023/07/12 07:38:27;;;;;;;6.28;2.00;;;21.30;99.90;;;;;;5041539;28;20239;-30
2023/07/12 07:40:56;;;;;;;6.07;2.25;;;21.30;99.90;;;;;;5029580;28;20223;-29
2023/07/12 07:43:28;;;;;;;5.05;2.05;;;21.40;99.90;;;;;;5030517;28;20197;-30
2023/07/12 07:45:58;;;;;;;4.80;1.70;;;21.40;99.90;;;;;;5029614;28;20216;-30
2023/07/12 07:48:27;;;;;;;5.07;1.85;;;21.40;99.90;;;;;;5036712;28;20220;-30
2023/07/12 07:50:55;;;;;;;7.78;2.45;;;21.40;99.90;;;;;;5025423;28;20220;-30
2023/07/12 07:53:23;;;;;;;7.38;2.80;;;21.50;99.90;;;;;;5026655;28;20208;-29
2023/07/12 07:55:51;;;;;;;4.47;1.85;;;21.50;99.90;;;;;;5040196;28;20224;-28
2023/07/12 07:58:19;;;;;;;5.35;1.90;;;21.50;99.90;;;;;;5030749;28;20209;-29
2023/07/12 08:00:53;;;;;;;7.38;2.30;;;21.60;99.90;;;;;;5029786;28;20620;-28
2023/07/12 08:03:21;;;;;;;6.63;2.10;;;21.60;99.90;;;;;;5038435;28;20555;-28
2023/07/12 08:05:49;;;;;;;5.13;1.90;;;21.60;99.90;;;;;;5045463;28;20200;-29
2023/07/12 08:08:20;;;;;;;5.88;2.22;;;21.60;99.90;;;;;;5040944;28;20582;-28
2023/07/12 08:10:50;;;;;;;6.97;2.10;;;21.60;99.90;;;;;;5035881;28;20622;-28
2023/07/12 08:13:22;;;;;;;5.43;2.28;;;21.70;99.90;;;;;;5027262;28;20209;-28
2023/07/12 08:15:49;;;;;;;6.53;2.22;;;21.70;99.90;;;;;;5034505;28;20224;-28
2023/07/12 08:18:16;;;;;;;7.15;2.33;;;21.70;99.90;;;;;;5038904;28;20247;-28
2023/07/12 08:20:46;;;;;;;6.15;2.10;;;21.70;99.90;;;;;;5028778;28;20699;-29
2023/07/12 08:23:13;;;;;;;6.63;2.65;;;21.80;99.90;;;;;;5047792;28;20243;-28
2023/07/12 08:25:42;;;;;;;7.32;2.40;;;21.80;99.90;;;;;;5038659;28;20274;-29
2023/07/12 08:28:12;;;;;;;8.75;2.30;;;21.80;99.90;;;;;;5036830;28;20994;-29
2023/07/12 08:30:39;;;;;;;6.00;2.20;;;21.80;99.90;;;;;;5026323;28;20208;-28
2023/07/12 08:33:11;;;;;;;8.13;2.55;;;21.90;99.90;;;;;;5026927;28;20212;-29
2023/07/12 08:35:39;;;;;;;5.72;2.20;;;21.90;99.90;;;;;;5025795;28;20714;-29
2023/07/12 08:38:18;;;;;;;10.50;3.75;;;21.90;99.90;;;;;;5036437;28;20239;-28
2023/07/12 08:40:51;;;;;;;7.00;2.47;;;22.00;99.90;;;;;;5027271;28;20201;-29
2023/07/12 08:43:35;;;;;;;6.80;2.40;;;22.10;99.90;;;;;;5025397;28;20209;-29
2023/07/12 08:46:13;;;;;;;4.90;2.00;;;22.10;99.90;;;;;;5036925;28;20212;-29
2023/07/12 08:48:45;;;;;;;7.50;2.53;;;22.10;99.90;;;;;;5025857;28;20214;-29
2023/07/12 08:51:17;;;;;;;8.05;2.40;;;22.10;99.90;;;;;;5031295;28;20643;-29
2023/07/12 08:53:45;;;;;;;7.97;2.70;;;22.20;99.90;;;;;;5024922;28;20216;-29
2023/07/12 08:56:18;;;;;;;8.65;2.15;;;22.30;99.90;;;;;;5029844;28;20228;-29
2023/07/12 08:58:53;;;;;;;5.50;2.20;;;22.30;99.90;;;;;;5033314;28;20674;-29
2023/07/12 09:01:41;;;;;;;7.07;2.13;;;22.40;99.90;;;;;;5033295;28;20661;-29
2023/07/12 09:04:15;;;;;;;6.43;2.00;;;22.40;99.90;;;;;;5036684;28;20221;-30
2023/07/12 09:06:42;;;;;;;7.00;2.50;;;22.40;99.90;;;;;;5034649;28;20192;-29
2023/07/12 09:09:10;;;;;;;8.57;2.53;;;22.50;99.90;;;;;;5025637;28;20855;-29
2023/07/12 09:11:39;;;;;;;6.22;2.33;;;22.50;99.90;;;;;;5033200;28;20594;-30
2023/07/12 09:14:15;;;;;;;5.93;2.28;;;22.50;99.90;;;;;;5023077;28;20863;-30
2023/07/12 09:16:48;;;;;;;9.90;2.20;;;22.50;99.90;;;;;;5029215;28;20200;-30
2023/07/12 09:19:20;;;;;;;5.97;2.03;;;22.50;99.90;;;;;;5026877;28;20246;-30
2023/07/12 09:21:53;;;;;;;3.38;1.60;;;22.50;99.90;;;;;;5028235;28;20250;-30
2023/07/12 09:24:24;;;;;;;6.38;2.20;;;22.50;99.90;;;;;;5037453;28;20604;-30
2023/07/12 09:27:04;;;;;;;6.05;2.03;;;22.50;99.90;;;;;;5027703;28;20223;-30
2023/07/12 09:29:36;;;;;;;4.03;1.95;;;22.50;99.90;;;;;;5030257;28;20740;-30
2023/07/12 09:32:28;;;;;;;4.88;2.00;;;22.50;99.90;;;;;;5030499;28;20748;-30
2023/07/12 09:34:55;;;;;;;6.22;1.90;;;22.50;99.90;;;;;;5033440;28;20270;-29
2023/07/12 09:37:25;;;;;;;4.53;1.95;;;22.50;99.90;;;;;;5044626;28;20577;-30
2023/07/12 09:40:03;;;;;;;6.88;1.98;;;22.50;99.90;;;;;;5033381;28;20259;-30
2023/07/12 09:42:31;;;;;;;4.72;1.92;;;22.50;99.90;;;;;;5025261;28;20201;-29
2023/07/12 09:45:04;;;;;;;9.55;1.73;;;22.50;99.90;;;;;;5034108;28;20683;-29
2023/07/12 09:47:50;;;;;;;6.03;1.95;;;22.50;99.90;;;;;;5043711;28;20842;-31
2023/07/12 09:50:47;;;;;;;5.05;2.08;;;22.50;99.90;;;;;;5024970;28;20201;-29
2023/07/12 09:53:50;;;;;;;5.43;2.08;;;22.60;99.90;;;;;;5046020;28;20238;-30
2023/07/12 09:56:59;;;;;;;5.10;1.90;;;22.60;99.90;;;;;;5028385;28;20240;-30
2023/07/12 09:59:32;;;;;;;5.55;1.90;;;22.60;99.90;;;;;;5035181;28;20732;-30
2023/07/12 10:02:36;;;;;;;6.30;1.88;;;22.60;99.90;;;;;;5037891;28;20268;-30
2023/07/12 10:05:13;;;;;;;5.95;1.77;;;22.60;99.90;;;;;;5028503;28;20263;-30
2023/07/12 10:08:08;;;;;;;4.38;1.83;;;22.60;99.90;;;;;;5029423;28;20231;-30
2023/07/12 10:10:50;;;;;;;5.35;1.98;;;22.60;99.90;;;;;;5039172;28;20243;-30
2023/07/12 10:13:40;;;;;;;4.05;1.80;;;22.60;99.70;;;;;;5038038;28;20220;-30
2023/07/12 10:16:34;;;;;;;7.15;2.28;;;22.50;99.70;;;;;;5027840;28;20225;-29
2023/07/12 10:19:37;;;;;;;5.80;1.58;;;22.60;99.70;;;;;;5049620;28;20784;-30
2023/07/12 10:22:27;;;;;;;4.22;1.67;;;22.60;99.60;;;;;;5044438;28;20222;-30
2023/07/12 10:25:01;;;;;;;4.15;1.80;;;22.60;99.60;;;;;;5028015;28;20200;-29
2023/07/12 10:27:45;;;;;;;4.60;1.50;;;22.70;99.70;;;;;;5045201;28;20269;-30
2023/07/12 10:30:21;;;;;;;5.43;1.75;;;22.80;99.70;;;;;;5042521;28;20216;-30
2023/07/12 10:33:32;;;;;;;4.88;1.77;;;22.90;99.70;;;;;;5026813;28;20712;-30
2023/07/12 10:36:09;;;;;;;4.95;1.80;;;22.90;99.80;;;;;;5036824;28;20217;-30
2023/07/12 10:38:36;;;;;;;6.53;2.08;;;22.90;99.60;;;;;;5033768;28;20740;-30
2023/07/12 10:41:13;;;;;;;5.93;1.67;;;23.00;99.70;;;;;;5037617;28;20215;-30
2023/07/12 10:43:45;;;;;;;3.90;1.63;;;23.00;99.60;;;;;;5043637;28;20228;-29
2023/07/12 10:46:21;;;;;;;4.13;1.50;;;23.00;99.50;;;;;;5047885;28;20251;-30
2023/07/12 10:48:50;;;;;;;5.22;2.00;;;23.00;99.50;;;;;;5032442;28;20211;-30
2023/07/12 10:51:27;;;;;;;8.18;2.00;;;23.00;99.20;;;;;;5026153;28;20601;-30
2023/07/12 10:53:55;;;;;;;14.60;2.47;;;23.00;99.30;;;;;;5039349;28;20227;-30
2023/07/12 10:56:35;;;;;;;7.85;2.05;;;22.90;99.10;;;;;;5040867;28;20267;-30
2023/07/12 10:59:24;;;;;;;8.02;1.90;;;23.00;99.20;;;;;;5029846;28;20200;-30
2023/07/12 11:01:56;;;;;;;10.20;1.85;;;22.90;99.10;;;;;;5036115;28;20201;-29
2023/07/12 11:04:30;;;;;;;6.32;1.60;;;23.00;99.10;;;;;;5033894;28;20207;-29
2023/07/12 11:06:58;;;;;;;4.88;1.30;;;23.10;99.10;;;;;;5033936;28;20201;-29
2023/07/12 11:09:49;;;;;;;5.88;1.30;;;23.00;99.20;;;;;;5027244;28;21053;-29
2023/07/12 11:12:31;;;;;;;6.13;1.58;;;23.10;99.20;;;;;;5047640;28;20747;-29
2023/07/12 11:15:21;;;;;;;4.07;1.60;;;23.00;99.20;;;;;;5035356;28;20292;-30
2023/07/12 11:17:58;;;;;;;5.07;1.50;;;23.10;99.30;;;;;;5049655;28;20200;-29
2023/07/12 11:20:34;;;;;;;4.68;1.35;;;23.20;99.00;;;;;;5036731;28;20258;-29
2023/07/12 11:23:07;;;;;;;4.40;1.75;;;23.20;99.00;;;;;;5045510;28;20216;-30
2023/07/12 11:25:45;;;;;;;5.63;1.52;;;23.30;99.10;;;;;;5028466;28;20219;-31
2023/07/12 11:28:48;;;;;;;3.72;1.10;;;23.30;99.10;;;;;;5027327;28;20208;-30
2023/07/12 11:31:21;;;;;;;7.35;1.55;;;23.30;99.10;;;;;;5019654;28;20216;-30
2023/07/12 11:34:05;;;;;;;5.22;1.35;;;23.40;98.60;;;;;;5031950;28;20212;-30
2023/07/12 11:36:35;;;;;;;6.88;2.33;;;23.40;98.70;;;;;;5046024;28;20223;-30
2023/07/12 11:39:17;;;;;;;5.60;1.60;;;23.50;98.90;;;;;;5046638;28;20658;-30
2023/07/12 11:41:59;;;;;;;5.82;1.60;;;23.50;98.80;;;;;;5033064;28;20204;-30
2023/07/12 11:44:31;;;;;;;7.65;1.73;;;23.50;98.90;;;;;;5026653;28;20209;-29
2023/07/12 11:47:02;;;;;;;4.80;1.40;;;23.60;98.80;;;;;;5028070;28;20697;-30
2023/07/12 11:49:30;;;;;;;4.72;1.33;;;23.60;98.70;;;;;;5032735;28;20467;-29
2023/07/12 11:52:11;;;;;;;4.25;1.40;;;23.60;98.70;;;;;;5035883;28;20204;-30
2023/07/12 11:54:40;;;;;;;3.55;1.30;;;23.60;98.70;;;;;;5034128;28;20204;-29
2023/07/12 11:57:13;;;;;;;4.72;1.42;;;23.60;98.80;;;;;;5025216;28;20221;-30
2023/07/12 11:59:45;;;;;;;3.08;1.48;;;23.60;98.80;;;;;;5042337;28;20204;-30
2023/07/12 12:02:20;;;;;;;5.90;1.60;;;23.60;98.60;;;;;;5025206;28;20262;-30
2023/07/12 12:04:55;;;;;;;7.03;1.63;;;23.50;98.30;;;;;;5025778;28;20227;-29
2023/07/12 12:07:42;;;;;;;4.50;1.50;;;23.50;98.50;;;;;;5040698;28;20266;-30
2023/07/12 12:10:25;;;;;;;10.18;2.10;;;23.50;98.60;;;;;;5026666;28;20200;-30
2023/07/12 12:12:54;;;;;;;8.50;2.05;;;23.50;98.60;;;;;;5030229;28;20204;-30
2023/07/12 12:15:30;;;;;;;5.60;1.55;;;23.50;98.50;;;;;;5033297;28;20221;-30
2023/07/12 12:18:04;;;;;;;4.35;1.55;;;23.50;98.60;;;;;;5031204;28;20339;-29
2023/07/12 12:20:35;;;;;;;4.35;1.58;;;23.60;98.70;;;;;;5031762;28;20224;-29
2023/07/12 12:23:16;;;;;;;4.18;1.30;;;23.60;98.70;;;;;;5034546;28;20240;-30
2023/07/12 12:25:50;;;;;;;4.80;1.50;;;23.60;98.80;;;;;;5045441;28;20200;-29
2023/07/12 12:28:28;;;;;;;5.88;1.45;;;23.60;98.80;;;;;;5029151;28;20209;-29
2023/07/12 12:31:06;;;;;;;4.38;1.38;;;23.70;98.90;;;;;;5031294;28;20223;-29
2023/07/12 12:33:35;;;;;;;4.68;1.10;;;23.70;98.50;;;;;;5029180;28;20204;-30
2023/07/12 12:36:05;;;;;;;3.15;1.00;;;23.70;99.00;;;;;;5041342;28;20244;-29
2023/07/12 12:38:36;;;;;;;4.45;1.30;;;23.80;98.50;;;;;;5041687;28;20228;-29
2023/07/12 12:41:18;;;;;;;3.80;1.20;;;23.80;98.40;;;;;;5027346;28;20562;-29
2023/07/12 12:44:19;;;;;;;3.88;1.15;;;23.90;98.40;;;;;;5041948;28;20212;-29
2023/07/12 12:46:54;;;;;;;6.22;1.40;;;23.90;98.60;;;;;;5045050;28;20657;-30
2023/07/12 12:49:27;;;;;;;2.83;0.98;;;24.00;98.60;;;;;;5034246;28;20199;-29
2023/07/12 12:52:38;;;;;;;3.03;1.15;;;24.10;98.50;;;;;;5044746;28;20231;-30
2023/07/12 12:55:14;;;;;;;6.10;1.25;;;24.10;98.40;;;;;;5039733;28;20320;-29
2023/07/12 12:58:03;;;;;;;5.78;1.58;;;24.20;98.40;;;;;;5026786;28;20257;-26
2023/07/12 13:00:51;;;;;;;6.47;1.77;;;24.20;98.30;;;;;;5034397;28;20709;-25
2023/07/12 13:03:21;;;;;;;5.28;1.23;;;24.20;98.10;;;;;;5037733;28;20299;-26
2023/07/12 13:05:57;;;;;;;3.38;1.02;;;24.30;98.10;;;;;;5038199;28;20920;-25
2023/07/12 13:08:24;;;;;;;2.17;0.70;;;24.30;97.80;;;;;;5025838;28;20239;-25
2023/07/12 13:10:57;;;;;;;3.30;0.90;;;24.40;97.70;;;;;;5036040;28;20564;-25
2023/07/12 13:13:27;;;;;;;3.88;0.90;;;24.40;97.90;;;;;;5028893;28;20719;-25